sensor_id;sensor_type;location;lat;lon;timestamp;pressure;altitude;pressure_sealevel;temperature;humidity
6395;BME280;3230;42.588;23.358;2022-12-13T00:00:32;90283.59;;;-2.98;100.00
6395;BME280;3230;42.588;23.358;2022-12-13T00:02:57;90282.38;;;-2.95;100.00
6395;BME280;3230;42.588;23.358;2022-12-13T00:05:23;90283.94;;;-2.94;100.00
6395;BME280;3230;42.588;23.358;2022-12-13T00:07:48;90282.84;;;-3.05;100.00
6395;BME280;3230;42.588;23.358;2022-12-13T00:10:13;90280.97;;;-3.16;100.00
6395;BME280;3230;42.588;23.358;2022-12-13T00:12:39;90293.78;;;-3.16;100.00
6395;BME280;3230;42.588;23.358;2022-12-13T00:15:04;90297.50;;;-3.12;100.00
6395;BME280;3230;42.588;23.358;2022-12-13T00:17:31;90303.25;;;-3.17;100.00
6395;BME280;3230;42.588;23.358;2022-12-13T00:19:57;90302.03;;;-3.14;100.00
6395;BME280;3230;42.588;23.358;2022-12-13T00:22:22;90299.53;;;-3.21;100.00
6395;BME280;3230;42.588;23.358;2022-12-13T00:24:48;90301.59;;;-3.30;100.00
6395;BME280;3230;42.588;23.358;2022-12-13T00:27:13;90312.22;;;-3.33;100.00
6395;BME280;3230;42.588;23.358;2022-12-13T00:29:39;90309.06;;;-3.28;100.00
6395;BME280;3230;42.588;23.358;2022-12-13T00:32:04;90306.53;;;-3.35;100.00
6395;BME280;3230;42.588;23.358;2022-12-13T00:34:29;90316.38;;;-3.32;100.00
6395;BME280;3230;42.588;23.358;2022-12-13T00:36:55;90312.09;;;-3.45;100.00
6395;BME280;3230;42.588;23.358;2022-12-13T00:39:23;90301.09;;;-3.45;100.00
6395;BME280;3230;42.588;23.358;2022-12-13T00:41:48;90310.50;;;-3.39;100.00
6395;BME280;3230;42.588;23.358;2022-12-13T00:44:14;90313.13;;;-3.46;100.00
6395;BME280;3230;42.588;23.358;2022-12-13T00:46:40;90316.47;;;-3.52;100.00
6395;BME280;3230;42.588;23.358;2022-12-13T00:49:06;90317.03;;;-3.43;100.00
6395;BME280;3230;42.588;23.358;2022-12-13T00:51:33;90319.69;;;-3.31;100.00
6395;BME280;3230;42.588;23.358;2022-12-13T00:53:59;90318.25;;;-3.21;100.00
6395;BME280;3230;42.588;23.358;2022-12-13T00:56:27;90326.13;;;-3.15;100.00
6395;BME280;3230;42.588;23.358;2022-12-13T00:58:54;90317.16;;;-3.06;100.00
6395;BME280;3230;42.588;23.358;2022-12-13T01:01:25;90324.13;;;-3.13;100.00
6395;BME280;3230;42.588;23.358;2022-12-13T01:03:56;90314.84;;;-3.14;100.00
6395;BME280;3230;42.588;23.358;2022-12-13T01:06:24;90315.03;;;-3.09;100.00
6395;BME280;3230;42.588;23.358;2022-12-13T01:08:50;90311.13;;;-3.12;100.00
6395;BME280;3230;42.588;23.358;2022-12-13T01:11:16;90307.38;;;-3.16;100.00
6395;BME280;3230;42.588;23.358;2022-12-13T01:13:41;90314.38;;;-3.05;100.00
6395;BME280;3230;42.588;23.358;2022-12-13T01:16:09;90324.00;;;-3.00;100.00
6395;BME280;3230;42.588;23.358;2022-12-13T01:18:35;90316.47;;;-2.95;100.00
6395;BME280;3230;42.588;23.358;2022-12-13T01:21:04;90314.81;;;-3.08;100.00
6395;BME280;3230;42.588;23.358;2022-12-13T01:23:30;90312.19;;;-3.01;100.00
6395;BME280;3230;42.588;23.358;2022-12-13T01:25:56;90322.03;;;-2.98;100.00
6395;BME280;3230;42.588;23.358;2022-12-13T01:28:23;90326.69;;;-3.13;100.00
6395;BME280;3230;42.588;23.358;2022-12-13T01:31:04;90317.59;;;-3.09;100.00
6395;BME280;3230;42.588;23.358;2022-12-13T01:33:30;90321.44;;;-3.00;100.00
6395;BME280;3230;42.588;23.358;2022-12-13T01:35:59;90331.78;;;-3.07;100.00
6395;BME280;3230;42.588;23.358;2022-12-13T01:38:25;90321.69;;;-3.08;100.00
6395;BME280;3230;42.588;23.358;2022-12-13T01:40:51;90319.97;;;-3.14;100.00
6395;BME280;3230;42.588;23.358;2022-12-13T01:45:49;90330.66;;;-3.17;100.00
6395;BME280;3230;42.588;23.358;2022-12-13T01:48:37;90331.50;;;-3.24;100.00
6395;BME280;3230;42.588;23.358;2022-12-13T01:51:05;90316.28;;;-3.18;100.00
6395;BME280;3230;42.588;23.358;2022-12-13T01:53:34;90325.41;;;-3.29;100.00
6395;BME280;3230;42.588;23.358;2022-12-13T01:56:05;90318.56;;;-3.35;100.00
6395;BME280;3230;42.588;23.358;2022-12-13T01:58:33;90320.50;;;-3.31;100.00
6395;BME280;3230;42.588;23.358;2022-12-13T02:01:00;90319.53;;;-3.30;100.00
6395;BME280;3230;42.588;23.358;2022-12-13T02:03:25;90328.44;;;-3.39;100.00
6395;BME280;3230;42.588;23.358;2022-12-13T02:08:20;90338.69;;;-3.39;100.00
6395;BME280;3230;42.588;23.358;2022-12-13T02:10:47;90330.16;;;-3.33;100.00
6395;BME280;3230;42.588;23.358;2022-12-13T02:13:12;90331.22;;;-3.41;100.00
6395;BME280;3230;42.588;23.358;2022-12-13T02:15:55;90334.97;;;-3.43;100.00
6395;BME280;3230;42.588;23.358;2022-12-13T02:26:53;90338.50;;;-3.76;100.00
6395;BME280;3230;42.588;23.358;2022-12-13T02:35:10;90348.22;;;-3.92;100.00
6395;BME280;3230;42.588;23.358;2022-12-13T02:38:00;90347.47;;;-4.06;100.00
6395;BME280;3230;42.588;23.358;2022-12-13T02:40:32;90349.28;;;-4.13;100.00
6395;BME280;3230;42.588;23.358;2022-12-13T02:45:48;90353.22;;;-4.10;100.00
6395;BME280;3230;42.588;23.358;2022-12-13T02:48:18;90347.34;;;-4.18;100.00
6395;BME280;3230;42.588;23.358;2022-12-13T02:50:45;90339.66;;;-4.24;100.00
6395;BME280;3230;42.588;23.358;2022-12-13T02:53:14;90335.97;;;-4.35;100.00
6395;BME280;3230;42.588;23.358;2022-12-13T02:55:39;90346.19;;;-4.28;100.00
6395;BME280;3230;42.588;23.358;2022-12-13T02:58:05;90346.22;;;-4.42;100.00
6395;BME280;3230;42.588;23.358;2022-12-13T03:03:34;90347.38;;;-4.31;100.00
6395;BME280;3230;42.588;23.358;2022-12-13T03:17:34;90356.47;;;-4.62;100.00
6395;BME280;3230;42.588;23.358;2022-12-13T03:20:03;90359.25;;;-4.70;100.00
6395;BME280;3230;42.588;23.358;2022-12-13T03:22:32;90361.41;;;-4.67;100.00
6395;BME280;3230;42.588;23.358;2022-12-13T03:24:58;90351.19;;;-4.67;100.00
6395;BME280;3230;42.588;23.358;2022-12-13T03:27:23;90356.50;;;-4.75;100.00
6395;BME280;3230;42.588;23.358;2022-12-13T03:29:48;90348.22;;;-4.77;100.00
6395;BME280;3230;42.588;23.358;2022-12-13T03:32:14;90352.38;;;-4.76;100.00
6395;BME280;3230;42.588;23.358;2022-12-13T03:34:39;90350.22;;;-4.86;100.00
6395;BME280;3230;42.588;23.358;2022-12-13T03:37:04;90350.41;;;-4.94;100.00
6395;BME280;3230;42.588;23.358;2022-12-13T03:39:30;90352.19;;;-4.95;100.00
6395;BME280;3230;42.588;23.358;2022-12-13T03:41:55;90344.31;;;-4.93;100.00
6395;BME280;3230;42.588;23.358;2022-12-13T03:44:20;90347.28;;;-4.96;100.00
6395;BME280;3230;42.588;23.358;2022-12-13T03:46:46;90347.09;;;-4.95;100.00
6395;BME280;3230;42.588;23.358;2022-12-13T03:49:11;90350.63;;;-5.03;100.00
6395;BME280;3230;42.588;23.358;2022-12-13T03:51:36;90354.75;;;-5.08;100.00
6395;BME280;3230;42.588;23.358;2022-12-13T03:54:02;90350.44;;;-5.01;100.00
6395;BME280;3230;42.588;23.358;2022-12-13T03:56:27;90347.50;;;-4.98;100.00
6395;BME280;3230;42.588;23.358;2022-12-13T03:58:53;90359.25;;;-5.10;100.00
6395;BME280;3230;42.588;23.358;2022-12-13T04:01:18;90354.94;;;-5.17;100.00
6395;BME280;3230;42.588;23.358;2022-12-13T04:03:45;90354.75;;;-5.22;100.00
6395;BME280;3230;42.588;23.358;2022-12-13T04:06:12;90355.72;;;-5.30;100.00
6395;BME280;3230;42.588;23.358;2022-12-13T04:08:38;90353.78;;;-5.21;100.00
6395;BME280;3230;42.588;23.358;2022-12-13T04:11:04;90358.47;;;-5.24;100.00
6395;BME280;3230;42.588;23.358;2022-12-13T04:13:48;90365.34;;;-5.25;100.00
6395;BME280;3230;42.588;23.358;2022-12-13T04:16:14;90370.66;;;-5.20;100.00
6395;BME280;3230;42.588;23.358;2022-12-13T04:18:40;90367.31;;;-5.20;100.00
6395;BME280;3230;42.588;23.358;2022-12-13T04:21:05;90377.94;;;-5.17;100.00
6395;BME280;3230;42.588;23.358;2022-12-13T04:23:31;90375.78;;;-5.20;100.00
6395;BME280;3230;42.588;23.358;2022-12-13T04:25:57;90372.66;;;-5.15;100.00
6395;BME280;3230;42.588;23.358;2022-12-13T04:28:23;90374.59;;;-5.17;100.00
6395;BME280;3230;42.588;23.358;2022-12-13T04:30:50;90377.53;;;-4.93;100.00
6395;BME280;3230;42.588;23.358;2022-12-13T04:33:15;90384.81;;;-4.97;100.00
6395;BME280;3230;42.588;23.358;2022-12-13T04:35:40;90406.44;;;-4.86;100.00
6395;BME280;3230;42.588;23.358;2022-12-13T04:38:06;90414.50;;;-4.96;100.00
6395;BME280;3230;42.588;23.358;2022-12-13T04:40:31;90417.84;;;-4.95;100.00
6395;BME280;3230;42.588;23.358;2022-12-13T04:42:57;90412.13;;;-5.04;100.00
6395;BME280;3230;42.588;23.358;2022-12-13T04:45:22;90408.81;;;-4.98;100.00
6395;BME280;3230;42.588;23.358;2022-12-13T04:47:48;90423.75;;;-5.02;100.00
6395;BME280;3230;42.588;23.358;2022-12-13T04:50:14;90425.69;;;-5.10;100.00
6395;BME280;3230;42.588;23.358;2022-12-13T04:52:40;90420.97;;;-5.07;100.00
6395;BME280;3230;42.588;23.358;2022-12-13T04:55:06;90412.72;;;-5.09;100.00
6395;BME280;3230;42.588;23.358;2022-12-13T04:57:33;90422.53;;;-5.19;100.00
6395;BME280;3230;42.588;23.358;2022-12-13T04:59:59;90418.59;;;-5.22;100.00
6395;BME280;3230;42.588;23.358;2022-12-13T05:02:24;90422.56;;;-5.12;100.00
6395;BME280;3230;42.588;23.358;2022-12-13T05:04:50;90428.84;;;-5.15;100.00
6395;BME280;3230;42.588;23.358;2022-12-13T05:07:15;90425.28;;;-5.21;100.00
6395;BME280;3230;42.588;23.358;2022-12-13T05:09:41;90423.91;;;-5.23;100.00
6395;BME280;3230;42.588;23.358;2022-12-13T05:12:06;90430.41;;;-5.21;100.00
6395;BME280;3230;42.588;23.358;2022-12-13T05:14:32;90422.72;;;-5.21;100.00
6395;BME280;3230;42.588;23.358;2022-12-13T05:17:00;90425.69;;;-5.17;100.00
6395;BME280;3230;42.588;23.358;2022-12-13T05:19:26;90426.88;;;-5.20;100.00
6395;BME280;3230;42.588;23.358;2022-12-13T05:21:51;90436.28;;;-5.27;100.00
6395;BME280;3230;42.588;23.358;2022-12-13T05:24:17;90433.72;;;-5.20;100.00
6395;BME280;3230;42.588;23.358;2022-12-13T05:26:42;90439.84;;;-5.15;100.00
6395;BME280;3230;42.588;23.358;2022-12-13T05:29:08;90432.75;;;-5.26;100.00
6395;BME280;3230;42.588;23.358;2022-12-13T05:31:33;90430.97;;;-5.32;100.00
6395;BME280;3230;42.588;23.358;2022-12-13T05:33:58;90426.88;;;-5.20;100.00
6395;BME280;3230;42.588;23.358;2022-12-13T05:36:24;90432.75;;;-5.26;100.00
6395;BME280;3230;42.588;23.358;2022-12-13T05:38:52;90444.16;;;-5.22;100.00
6395;BME280;3230;42.588;23.358;2022-12-13T05:41:20;90449.63;;;-5.32;100.00
6395;BME280;3230;42.588;23.358;2022-12-13T05:43:48;90455.50;;;-5.38;100.00
6395;BME280;3230;42.588;23.358;2022-12-13T05:46:14;90462.97;;;-5.36;100.00
6395;BME280;3230;42.588;23.358;2022-12-13T05:48:39;90455.31;;;-5.36;100.00
6395;BME280;3230;42.588;23.358;2022-12-13T05:51:10;90463.38;;;-5.39;100.00
6395;BME280;3230;42.588;23.358;2022-12-13T05:53:35;90469.03;;;-5.37;100.00
6395;BME280;3230;42.588;23.358;2022-12-13T05:56:04;90468.84;;;-5.49;100.00
6395;BME280;3230;42.588;23.358;2022-12-13T05:58:29;90466.91;;;-5.40;100.00
6395;BME280;3230;42.588;23.358;2022-12-13T06:01:03;90472.78;;;-5.47;100.00
6395;BME280;3230;42.588;23.358;2022-12-13T06:03:29;90468.06;;;-5.36;100.00
6395;BME280;3230;42.588;23.358;2022-12-13T06:05:55;90461.41;;;-5.31;100.00
6395;BME280;3230;42.588;23.358;2022-12-13T06:08:20;90461.25;;;-5.22;100.00
6395;BME280;3230;42.588;23.358;2022-12-13T06:10:53;90468.53;;;-5.12;100.00
6395;BME280;3230;42.588;23.358;2022-12-13T06:13:18;90464.97;;;-5.18;100.00
6395;BME280;3230;42.588;23.358;2022-12-13T06:15:44;90475.59;;;-5.08;100.00
6395;BME280;3230;42.588;23.358;2022-12-13T06:18:09;90470.72;;;-4.96;100.00
6395;BME280;3230;42.588;23.358;2022-12-13T06:20:34;90471.50;;;-4.89;100.00
6395;BME280;3230;42.588;23.358;2022-12-13T06:23:00;90465.81;;;-4.77;100.00
6395;BME280;3230;42.588;23.358;2022-12-13T06:25:25;90469.38;;;-4.65;100.00
6395;BME280;3230;42.588;23.358;2022-12-13T06:27:52;90465.44;;;-4.61;100.00
6395;BME280;3230;42.588;23.358;2022-12-13T06:30:17;90467.81;;;-4.53;100.00
6395;BME280;3230;42.588;23.358;2022-12-13T06:32:47;90470.16;;;-4.38;100.00
6395;BME280;3230;42.588;23.358;2022-12-13T06:35:13;90471.94;;;-4.38;100.00
6395;BME280;3230;42.588;23.358;2022-12-13T06:37:38;90468.19;;;-4.42;100.00
6395;BME280;3230;42.588;23.358;2022-12-13T06:40:04;90479.19;;;-4.35;100.00
6395;BME280;3230;42.588;23.358;2022-12-13T06:42:29;90479.19;;;-4.35;100.00
6395;BME280;3230;42.588;23.358;2022-12-13T06:44:55;90486.28;;;-4.24;100.00
6395;BME280;3230;42.588;23.358;2022-12-13T06:47:21;90481.94;;;-4.30;100.00
6395;BME280;3230;42.588;23.358;2022-12-13T06:49:47;90481.13;;;-3.97;100.00
6395;BME280;3230;42.588;23.358;2022-12-13T06:52:13;90487.63;;;-4.01;100.00
6395;BME280;3230;42.588;23.358;2022-12-13T06:54:39;90489.81;;;-3.98;100.00
6395;BME280;3230;42.588;23.358;2022-12-13T06:57:04;90485.47;;;-3.91;100.00
6395;BME280;3230;42.588;23.358;2022-12-13T06:59:29;90488.97;;;-3.78;100.00
6395;BME280;3230;42.588;23.358;2022-12-13T07:01:55;90491.13;;;-3.75;100.00
6395;BME280;3230;42.588;23.358;2022-12-13T07:04:20;90499.59;;;-3.81;100.00
6395;BME280;3230;42.588;23.358;2022-12-13T07:06:45;90497.59;;;-3.59;100.00
6395;BME280;3230;42.588;23.358;2022-12-13T07:09:11;90503.78;;;-3.35;100.00
6395;BME280;3230;42.588;23.358;2022-12-13T07:11:36;90516.38;;;-3.27;100.00
6395;BME280;3230;42.588;23.358;2022-12-13T07:14:02;90519.09;;;-3.15;100.00
6395;BME280;3230;42.588;23.358;2022-12-13T07:16:27;90521.22;;;-2.98;100.00
6395;BME280;3230;42.588;23.358;2022-12-13T07:18:57;90529.41;;;-2.83;100.00
6395;BME280;3230;42.588;23.358;2022-12-13T07:21:23;90523.56;;;-2.58;100.00
6395;BME280;3230;42.588;23.358;2022-12-13T07:23:49;90539.25;;;-2.41;100.00
6395;BME280;3230;42.588;23.358;2022-12-13T07:26:18;90538.34;;;-2.28;100.00
6395;BME280;3230;42.588;23.358;2022-12-13T07:28:44;90548.84;;;-2.04;100.00
6395;BME280;3230;42.588;23.358;2022-12-13T07:31:10;90552.22;;;-1.85;100.00
6395;BME280;3230;42.588;23.358;2022-12-13T07:33:36;90556.59;;;-1.42;100.00
6395;BME280;3230;42.588;23.358;2022-12-13T07:36:04;90558.03;;;-1.27;100.00
6395;BME280;3230;42.588;23.358;2022-12-13T07:38:34;90559.66;;;-1.15;99.60
6395;BME280;3230;42.588;23.358;2022-12-13T07:41:00;90562.69;;;-1.18;97.95
6395;BME280;3230;42.588;23.358;2022-12-13T07:43:25;90558.47;;;-0.93;99.16
6395;BME280;3230;42.588;23.358;2022-12-13T07:45:51;90562.44;;;-0.98;98.55
6395;BME280;3230;42.588;23.358;2022-12-13T07:48:17;90563.00;;;-0.58;98.19
6395;BME280;3230;42.588;23.358;2022-12-13T07:50:43;90566.03;;;-0.80;96.94
6395;BME280;3230;42.588;23.358;2022-12-13T07:53:09;90560.94;;;-0.38;97.04
6395;BME280;3230;42.588;23.358;2022-12-13T07:55:35;90565.00;;;-0.30;94.01
6395;BME280;3230;42.588;23.358;2022-12-13T07:58:23;90572.88;;;-0.43;93.39
6395;BME280;3230;42.588;23.358;2022-12-13T08:00:47;90572.34;;;-0.64;93.64
6395;BME280;3230;42.588;23.358;2022-12-13T08:03:13;90573.13;;;-0.63;93.59
6395;BME280;3230;42.588;23.358;2022-12-13T08:05:39;90586.81;;;-0.63;91.14
6395;BME280;3230;42.588;23.358;2022-12-13T08:08:07;90588.63;;;-0.21;92.76
6395;BME280;3230;42.588;23.358;2022-12-13T08:10:33;90589.50;;;0.15;91.31
6395;BME280;3230;42.588;23.358;2022-12-13T08:13:01;90593.16;;;-0.05;90.60
6395;BME280;3230;42.588;23.358;2022-12-13T08:15:26;90588.69;;;-0.09;90.54
6395;BME280;3230;42.588;23.358;2022-12-13T08:17:55;90596.34;;;0.21;90.00
6395;BME280;3230;42.588;23.358;2022-12-13T08:20:20;90596.34;;;0.21;90.19
6395;BME280;3230;42.588;23.358;2022-12-13T08:22:53;90594.47;;;0.52;89.68
6395;BME280;3230;42.588;23.358;2022-12-13T08:25:19;90599.75;;;0.93;90.47
6395;BME280;3230;42.588;23.358;2022-12-13T08:27:44;90601.84;;;1.20;88.98
6395;BME280;3230;42.588;23.358;2022-12-13T08:30:10;90594.03;;;1.03;88.54
6395;BME280;3230;42.588;23.358;2022-12-13T08:32:35;90597.38;;;1.15;87.80
6395;BME280;3230;42.588;23.358;2022-12-13T08:35:01;90599.41;;;0.66;88.73
6395;BME280;3230;42.588;23.358;2022-12-13T08:37:26;90589.63;;;1.03;88.44
6395;BME280;3230;42.588;23.358;2022-12-13T08:39:51;90580.09;;;0.09;90.32
6395;BME280;3230;42.588;23.358;2022-12-13T08:42:17;90576.88;;;0.13;91.59
6395;BME280;3230;42.588;23.358;2022-12-13T08:44:44;90579.59;;;-0.12;92.56
6395;BME280;3230;42.588;23.358;2022-12-13T08:47:09;90578.31;;;0.21;91.50
6395;BME280;3230;42.588;23.358;2022-12-13T08:49:35;90565.53;;;0.03;92.17
6395;BME280;3230;42.588;23.358;2022-12-13T08:52:00;90563.47;;;-0.19;94.61
6395;BME280;3230;42.588;23.358;2022-12-13T08:54:26;90557.00;;;-0.40;95.41
6395;BME280;3230;42.588;23.358;2022-12-13T08:56:51;90557.69;;;-0.33;96.25
6395;BME280;3230;42.588;23.358;2022-12-13T08:59:17;90560.19;;;-0.26;96.00
6395;BME280;3230;42.588;23.358;2022-12-13T09:01:42;90554.88;;;-0.74;96.88
6395;BME280;3230;42.588;23.358;2022-12-13T09:04:08;90558.31;;;-0.80;96.77
6395;BME280;3230;42.588;23.358;2022-12-13T09:06:33;90553.81;;;-0.85;96.50
6395;BME280;3230;42.588;23.358;2022-12-13T09:08:59;90562.41;;;-0.60;94.71
6395;BME280;3230;42.588;23.358;2022-12-13T09:11:24;90552.03;;;-1.21;94.87
6395;BME280;3230;42.588;23.358;2022-12-13T09:13:49;90554.38;;;-1.38;98.50
6395;BME280;3230;42.588;23.358;2022-12-13T09:16:17;90536.91;;;-1.30;98.08
6395;BME280;3230;42.588;23.358;2022-12-13T09:18:44;90540.75;;;-1.02;99.28
6395;BME280;3230;42.588;23.358;2022-12-13T09:21:12;90541.72;;;-0.84;100.00
6395;BME280;3230;42.588;23.358;2022-12-13T09:23:39;90545.50;;;-0.68;96.28
6395;BME280;3230;42.588;23.358;2022-12-13T09:26:09;90544.53;;;-0.55;89.63
6395;BME280;3230;42.588;23.358;2022-12-13T09:28:36;90535.66;;;-0.29;90.36
6395;BME280;3230;42.588;23.358;2022-12-13T09:31:13;90537.59;;;-0.12;88.90
6395;BME280;3230;42.588;23.358;2022-12-13T09:33:39;90531.44;;;-0.11;89.11
6395;BME280;3230;42.588;23.358;2022-12-13T09:36:06;90529.13;;;0.11;90.65
6395;BME280;3230;42.588;23.358;2022-12-13T09:38:33;90531.16;;;0.09;87.93
6395;BME280;3230;42.588;23.358;2022-12-13T09:41:08;90532.06;;;0.26;86.45
6395;BME280;3230;42.588;23.358;2022-12-13T09:43:37;90525.78;;;0.46;89.36
6395;BME280;3230;42.588;23.358;2022-12-13T09:46:07;90532.50;;;0.47;87.70
6395;BME280;3230;42.588;23.358;2022-12-13T09:48:36;90535.53;;;0.44;87.79
6395;BME280;3230;42.588;23.358;2022-12-13T09:51:01;90526.91;;;0.38;89.08
6395;BME280;3230;42.588;23.358;2022-12-13T09:53:27;90516.59;;;0.03;90.14
6395;BME280;3230;42.588;23.358;2022-12-13T09:55:52;90520.69;;;0.04;89.52
6395;BME280;3230;42.588;23.358;2022-12-13T09:58:29;90520.16;;;0.02;89.53
6395;BME280;3230;42.588;23.358;2022-12-13T10:00:56;90517.56;;;-0.10;89.95
6395;BME280;3230;42.588;23.358;2022-12-13T10:03:23;90523.47;;;-0.10;92.29
6395;BME280;3230;42.588;23.358;2022-12-13T10:05:58;90527.22;;;-0.06;91.30
6395;BME280;3230;42.588;23.358;2022-12-13T10:08:31;90518.13;;;0.04;92.66
6395;BME280;3230;42.588;23.358;2022-12-13T10:11:00;90518.94;;;0.04;91.72
6395;BME280;3230;42.588;23.358;2022-12-13T10:16:05;90517.44;;;-0.15;92.00
6395;BME280;3230;42.588;23.358;2022-12-13T10:18:35;90516.53;;;-0.21;89.39
6395;BME280;3230;42.588;23.358;2022-12-13T10:21:04;90506.38;;;-0.46;91.83
6395;BME280;3230;42.588;23.358;2022-12-13T10:23:32;90497.66;;;-0.45;93.54
6395;BME280;3230;42.588;23.358;2022-12-13T10:25:57;90496.03;;;-0.16;93.37
6395;BME280;3230;42.588;23.358;2022-12-13T10:28:31;90501.75;;;-0.14;92.48
6395;BME280;3230;42.588;23.358;2022-12-13T10:30:58;90495.69;;;-0.20;93.80
6395;BME280;3230;42.588;23.358;2022-12-13T10:33:31;90490.47;;;-0.55;93.49
6395;BME280;3230;42.588;23.358;2022-12-13T10:38:38;90471.03;;;-0.39;96.37
6395;BME280;3230;42.588;23.358;2022-12-13T10:41:33;90464.31;;;-0.40;97.25
6395;BME280;3230;42.588;23.358;2022-12-13T10:44:20;90465.16;;;-0.70;95.75
6395;BME280;3230;42.588;23.358;2022-12-13T10:47:04;90450.22;;;-0.50;97.32
6395;BME280;3230;42.588;23.358;2022-12-13T10:49:57;90451.78;;;-0.37;96.44
6395;BME280;3230;42.588;23.358;2022-12-13T10:52:34;90453.72;;;-0.20;96.11
6395;BME280;3230;42.588;23.358;2022-12-13T10:55:05;90460.34;;;-0.12;97.63
6395;BME280;3230;42.588;23.358;2022-12-13T10:57:35;90444.56;;;-0.04;97.57
6395;BME280;3230;42.588;23.358;2022-12-13T11:00:01;90453.19;;;0.13;97.34
6395;BME280;3230;42.588;23.358;2022-12-13T11:02:35;90455.19;;;-0.12;94.59
6395;BME280;3230;42.588;23.358;2022-12-13T11:05:37;90453.19;;;0.02;95.32
6395;BME280;3230;42.588;23.358;2022-12-13T11:08:23;90455.75;;;0.02;95.15
6395;BME280;3230;42.588;23.358;2022-12-13T11:10:59;90449.03;;;0.12;94.10
6395;BME280;3230;42.588;23.358;2022-12-13T11:13:52;90454.31;;;0.06;93.87
6395;BME280;3230;42.588;23.358;2022-12-13T11:16:29;90441.84;;;-0.21;93.88
6395;BME280;3230;42.588;23.358;2022-12-13T11:18:58;90449.22;;;-0.37;94.53
6395;BME280;3230;42.588;23.358;2022-12-13T11:21:28;90446.78;;;-0.31;96.44
6395;BME280;3230;42.588;23.358;2022-12-13T11:23:57;90423.81;;;-0.45;95.46
6395;BME280;3230;42.588;23.358;2022-12-13T11:26:25;90428.75;;;-0.31;95.91
6395;BME280;3230;42.588;23.358;2022-12-13T11:40:15;90443.78;;;-0.05;95.42
6395;BME280;3230;42.588;23.358;2022-12-13T11:42:46;90455.19;;;-0.24;95.57
6395;BME280;3230;42.588;23.358;2022-12-13T11:50:34;90441.38;;;-0.42;93.37
6395;BME280;3230;42.588;23.358;2022-12-13T11:53:32;90440.47;;;-0.59;94.25
6395;BME280;3230;42.588;23.358;2022-12-13T12:01:11;90436.56;;;-0.50;94.96
6395;BME280;3230;42.588;23.358;2022-12-13T12:03:59;90428.09;;;-0.81;94.69
6395;BME280;3230;42.588;23.358;2022-12-13T12:06:37;90444.13;;;-0.79;94.61
6395;BME280;3230;42.588;23.358;2022-12-13T12:09:12;90436.06;;;-0.71;95.08
6395;BME280;3230;42.588;23.358;2022-12-13T12:11:46;90430.78;;;-0.76;94.58
6395;BME280;3230;42.588;23.358;2022-12-13T12:14:42;90433.63;;;-0.66;95.34
6395;BME280;3230;42.588;23.358;2022-12-13T12:17:15;90432.75;;;-0.59;95.39
6395;BME280;3230;42.588;23.358;2022-12-13T12:19:48;90427.38;;;-0.58;95.38
6395;BME280;3230;42.588;23.358;2022-12-13T12:25:44;90427.03;;;-0.61;95.64
6395;BME280;3230;42.588;23.358;2022-12-13T12:28:17;90432.75;;;-0.59;96.13
6395;BME280;3230;42.588;23.358;2022-12-13T12:31:44;90433.19;;;-0.62;96.58
6395;BME280;3230;42.588;23.358;2022-12-13T12:34:01;90433.63;;;-0.66;95.31
6395;BME280;3230;42.588;23.358;2022-12-13T12:45:27;90434.44;;;-0.53;97.58
6395;BME280;3230;42.588;23.358;2022-12-13T12:48:19;90442.22;;;-0.72;96.99
6395;BME280;3230;42.588;23.358;2022-12-13T12:56:04;90443.16;;;-0.54;98.09
6395;BME280;3230;42.588;23.358;2022-12-13T12:58:39;90455.03;;;-0.53;98.27
6395;BME280;3230;42.588;23.358;2022-12-13T13:03:53;90448.53;;;-0.56;98.50
6395;BME280;3230;42.588;23.358;2022-12-13T13:07:09;90464.75;;;-0.55;98.56
6395;BME280;3230;42.588;23.358;2022-12-13T13:09:16;90472.66;;;-0.69;97.61
6395;BME280;3230;42.588;23.358;2022-12-13T13:11:44;90481.25;;;-0.75;96.44
6395;BME280;3230;42.588;23.358;2022-12-13T13:14:26;90478.94;;;-0.65;96.76
6395;BME280;3230;42.588;23.358;2022-12-13T13:16:52;90483.66;;;-0.61;96.70
6395;BME280;3230;42.588;23.358;2022-12-13T13:21:46;90485.66;;;-0.94;98.27
6395;BME280;3230;42.588;23.358;2022-12-13T13:24:26;90493.41;;;-0.82;98.67
6395;BME280;3230;42.588;23.358;2022-12-13T13:26:56;90477.97;;;-0.82;99.71
6395;BME280;3230;42.588;23.358;2022-12-13T13:34:36;90485.94;;;-0.84;99.44
6395;BME280;3230;42.588;23.358;2022-12-13T13:39:56;90510.06;;;-0.54;99.97
6395;BME280;3230;42.588;23.358;2022-12-13T13:42:30;90504.50;;;-0.51;98.90
6395;BME280;3230;42.588;23.358;2022-12-13T13:45:21;90505.81;;;-0.60;97.98
6395;BME280;3230;42.588;23.358;2022-12-13T14:05:00;90488.16;;;-1.36;97.83
6395;BME280;3230;42.588;23.358;2022-12-13T14:21:07;90463.84;;;-1.40;96.73
6395;BME280;3230;42.588;23.358;2022-12-13T14:29:36;90485.72;;;-1.50;97.81
6395;BME280;3230;42.588;23.358;2022-12-13T14:32:40;90482.78;;;-1.53;98.29
6395;BME280;3230;42.588;23.358;2022-12-13T14:35:01;90465.28;;;-1.82;99.89
6395;BME280;3230;42.588;23.358;2022-12-13T14:37:32;90456.22;;;-1.84;100.00
6395;BME280;3230;42.588;23.358;2022-12-13T14:39:59;90456.13;;;-1.96;100.00
6395;BME280;3230;42.588;23.358;2022-12-13T14:42:30;90440.94;;;-1.98;100.00
6395;BME280;3230;42.588;23.358;2022-12-13T14:45:21;90456.19;;;-2.03;100.00
6395;BME280;3230;42.588;23.358;2022-12-13T14:47:47;90455.19;;;-2.20;100.00
6395;BME280;3230;42.588;23.358;2022-12-13T14:50:16;90466.81;;;-2.18;100.00
6395;BME280;3230;42.588;23.358;2022-12-13T14:52:43;90470.72;;;-2.15;100.00
6395;BME280;3230;42.588;23.358;2022-12-13T14:57:55;90469.88;;;-2.09;100.00
6395;BME280;3230;42.588;23.358;2022-12-13T15:00:33;90473.84;;;-2.13;100.00
6395;BME280;3230;42.588;23.358;2022-12-13T15:03:02;90475.53;;;-2.26;100.00
6395;BME280;3230;42.588;23.358;2022-12-13T15:07:59;90485.06;;;-2.33;100.00
6395;BME280;3230;42.588;23.358;2022-12-13T15:13:00;90488.66;;;-2.34;100.00
6395;BME280;3230;42.588;23.358;2022-12-13T15:15:29;90486.09;;;-2.34;100.00
6395;BME280;3230;42.588;23.358;2022-12-13T15:20:32;90480.78;;;-2.39;100.00
6395;BME280;3230;42.588;23.358;2022-12-13T15:23:33;90484.41;;;-2.47;100.00
6395;BME280;3230;42.588;23.358;2022-12-13T15:26:07;90499.22;;;-2.49;100.00
6395;BME280;3230;42.588;23.358;2022-12-13T15:28:35;90499.78;;;-2.47;100.00
6395;BME280;3230;42.588;23.358;2022-12-13T15:31:03;90508.94;;;-2.58;100.00
6395;BME280;3230;42.588;23.358;2022-12-13T15:33:29;90512.09;;;-2.55;100.00
6395;BME280;3230;42.588;23.358;2022-12-13T15:36:05;90523.28;;;-2.50;100.00